sensor_id;sensor_type;location;lat;lon;timestamp;temperature;humidity
19862;DHT22;10093;48.148;8.542;2023-04-24T00:02:20;9.70;99.90
19862;DHT22;10093;48.148;8.542;2023-04-24T00:04:46;9.60;99.90
19862;DHT22;10093;48.148;8.542;2023-04-24T00:07:12;9.70;99.90
19862;DHT22;10093;48.148;8.542;2023-04-24T00:09:38;9.70;99.90
19862;DHT22;10093;48.148;8.542;2023-04-24T00:12:04;9.70;99.90
19862;DHT22;10093;48.148;8.542;2023-04-24T00:14:31;9.70;99.90
19862;DHT22;10093;48.148;8.542;2023-04-24T00:16:56;9.70;99.90
19862;DHT22;10093;48.148;8.542;2023-04-24T00:19:22;9.70;99.90
19862;DHT22;10093;48.148;8.542;2023-04-24T00:21:48;9.70;99.90
19862;DHT22;10093;48.148;8.542;2023-04-24T00:24:16;9.70;99.90
19862;DHT22;10093;48.148;8.542;2023-04-24T00:26:42;9.70;99.90
19862;DHT22;10093;48.148;8.542;2023-04-24T00:29:07;9.70;99.90
19862;DHT22;10093;48.148;8.542;2023-04-24T00:31:33;9.60;99.90
19862;DHT22;10093;48.148;8.542;2023-04-24T00:34:02;9.60;99.90
19862;DHT22;10093;48.148;8.542;2023-04-24T00:36:28;9.60;99.90
19862;DHT22;10093;48.148;8.542;2023-04-24T00:38:54;9.60;99.90
19862;DHT22;10093;48.148;8.542;2023-04-24T00:41:21;9.60;99.90
19862;DHT22;10093;48.148;8.542;2023-04-24T00:43:47;9.60;99.90
19862;DHT22;10093;48.148;8.542;2023-04-24T00:46:13;9.60;99.90
19862;DHT22;10093;48.148;8.542;2023-04-24T00:48:40;9.60;99.90
19862;DHT22;10093;48.148;8.542;2023-04-24T00:51:05;9.60;99.90
19862;DHT22;10093;48.148;8.542;2023-04-24T00:53:31;9.50;99.90
19862;DHT22;10093;48.148;8.542;2023-04-24T00:55:58;9.50;99.90
19862;DHT22;10093;48.148;8.542;2023-04-24T00:58:24;9.50;99.90
19862;DHT22;10093;48.148;8.542;2023-04-24T01:00:51;9.50;99.90
19862;DHT22;10093;48.148;8.542;2023-04-24T01:03:22;9.50;99.90
19862;DHT22;10093;48.148;8.542;2023-04-24T01:05:50;9.50;99.90
19862;DHT22;10093;48.148;8.542;2023-04-24T01:08:16;9.50;99.90
19862;DHT22;10093;48.148;8.542;2023-04-24T01:10:43;9.40;99.90
19862;DHT22;10093;48.148;8.542;2023-04-24T01:13:09;9.50;99.90
19862;DHT22;10093;48.148;8.542;2023-04-24T01:15:35;9.40;99.90
19862;DHT22;10093;48.148;8.542;2023-04-24T01:18:01;9.40;99.90
19862;DHT22;10093;48.148;8.542;2023-04-24T01:20:27;9.40;99.90
19862;DHT22;10093;48.148;8.542;2023-04-24T01:22:56;9.40;99.90
19862;DHT22;10093;48.148;8.542;2023-04-24T01:25:23;9.40;99.90
19862;DHT22;10093;48.148;8.542;2023-04-24T01:27:50;9.40;99.90
19862;DHT22;10093;48.148;8.542;2023-04-24T01:30:17;9.40;99.90
19862;DHT22;10093;48.148;8.542;2023-04-24T01:32:43;9.40;99.90
19862;DHT22;10093;48.148;8.542;2023-04-24T01:35:11;9.40;99.90
19862;DHT22;10093;48.148;8.542;2023-04-24T01:37:36;9.40;99.90
19862;DHT22;10093;48.148;8.542;2023-04-24T01:40:06;9.40;99.90
19862;DHT22;10093;48.148;8.542;2023-04-24T01:42:32;9.40;99.90
19862;DHT22;10093;48.148;8.542;2023-04-24T01:44:58;9.30;99.90
19862;DHT22;10093;48.148;8.542;2023-04-24T01:47:25;9.30;99.90
19862;DHT22;10093;48.148;8.542;2023-04-24T01:49:51;9.20;99.90
19862;DHT22;10093;48.148;8.542;2023-04-24T01:52:17;9.00;99.90
19862;DHT22;10093;48.148;8.542;2023-04-24T01:54:44;8.80;99.90
19862;DHT22;10093;48.148;8.542;2023-04-24T01:57:10;8.70;99.90
19862;DHT22;10093;48.148;8.542;2023-04-24T01:59:35;8.60;99.90
19862;DHT22;10093;48.148;8.542;2023-04-24T02:02:02;8.50;99.90
19862;DHT22;10093;48.148;8.542;2023-04-24T02:04:28;8.50;99.90
19862;DHT22;10093;48.148;8.542;2023-04-24T02:06:54;8.40;99.90
19862;DHT22;10093;48.148;8.542;2023-04-24T02:09:19;8.40;99.90
19862;DHT22;10093;48.148;8.542;2023-04-24T02:11:45;8.30;99.90
19862;DHT22;10093;48.148;8.542;2023-04-24T02:14:11;8.30;99.90
19862;DHT22;10093;48.148;8.542;2023-04-24T02:16:37;8.30;99.90
19862;DHT22;10093;48.148;8.542;2023-04-24T02:19:02;8.30;99.90
19862;DHT22;10093;48.148;8.542;2023-04-24T02:21:28;8.20;99.90
19862;DHT22;10093;48.148;8.542;2023-04-24T02:23:54;8.10;99.90
19862;DHT22;10093;48.148;8.542;2023-04-24T02:26:20;8.10;99.90
19862;DHT22;10093;48.148;8.542;2023-04-24T02:28:45;8.10;99.90
19862;DHT22;10093;48.148;8.542;2023-04-24T02:31:11;8.20;99.90
19862;DHT22;10093;48.148;8.542;2023-04-24T02:33:37;8.30;99.90
19862;DHT22;10093;48.148;8.542;2023-04-24T02:36:02;8.30;99.90
19862;DHT22;10093;48.148;8.542;2023-04-24T02:38:29;8.20;99.90
19862;DHT22;10093;48.148;8.542;2023-04-24T02:40:55;8.30;99.90
19862;DHT22;10093;48.148;8.542;2023-04-24T02:43:20;8.30;99.90
19862;DHT22;10093;48.148;8.542;2023-04-24T02:45:46;8.30;99.90
19862;DHT22;10093;48.148;8.542;2023-04-24T02:48:12;8.30;99.90
19862;DHT22;10093;48.148;8.542;2023-04-24T02:50:37;8.20;99.90
19862;DHT22;10093;48.148;8.542;2023-04-24T02:53:03;8.30;99.90
19862;DHT22;10093;48.148;8.542;2023-04-24T02:55:29;8.20;99.90
19862;DHT22;10093;48.148;8.542;2023-04-24T02:57:54;8.30;99.90
19862;DHT22;10093;48.148;8.542;2023-04-24T03:00:20;8.30;99.90
19862;DHT22;10093;48.148;8.542;2023-04-24T03:02:46;8.20;99.90
19862;DHT22;10093;48.148;8.542;2023-04-24T03:05:11;8.30;99.90
19862;DHT22;10093;48.148;8.542;2023-04-24T03:07:37;8.30;99.90
19862;DHT22;10093;48.148;8.542;2023-04-24T03:10:04;8.20;99.90
19862;DHT22;10093;48.148;8.542;2023-04-24T03:12:31;8.30;99.90
19862;DHT22;10093;48.148;8.542;2023-04-24T03:14:56;8.30;99.90
19862;DHT22;10093;48.148;8.542;2023-04-24T03:17:22;8.20;99.90
19862;DHT22;10093;48.148;8.542;2023-04-24T03:19:48;8.20;99.90
19862;DHT22;10093;48.148;8.542;2023-04-24T03:22:13;8.20;99.90
19862;DHT22;10093;48.148;8.542;2023-04-24T03:24:39;8.10;99.90
19862;DHT22;10093;48.148;8.542;2023-04-24T03:27:05;8.10;99.90
19862;DHT22;10093;48.148;8.542;2023-04-24T03:29:31;8.10;99.90
19862;DHT22;10093;48.148;8.542;2023-04-24T03:31:56;8.10;99.90
19862;DHT22;10093;48.148;8.542;2023-04-24T03:34:22;8.10;99.90
19862;DHT22;10093;48.148;8.542;2023-04-24T03:36:47;8.00;99.90
19862;DHT22;10093;48.148;8.542;2023-04-24T03:39:13;7.90;99.90
19862;DHT22;10093;48.148;8.542;2023-04-24T03:41:39;7.90;99.90
19862;DHT22;10093;48.148;8.542;2023-04-24T03:44:04;8.00;99.90
19862;DHT22;10093;48.148;8.542;2023-04-24T03:46:30;7.90;99.90
19862;DHT22;10093;48.148;8.542;2023-04-24T03:48:56;8.00;99.90
19862;DHT22;10093;48.148;8.542;2023-04-24T03:51:21;7.90;99.90
19862;DHT22;10093;48.148;8.542;2023-04-24T03:53:48;7.90;99.90
19862;DHT22;10093;48.148;8.542;2023-04-24T03:56:14;7.90;99.90
19862;DHT22;10093;48.148;8.542;2023-04-24T03:58:40;7.90;99.90
19862;DHT22;10093;48.148;8.542;2023-04-24T04:01:05;7.80;99.90
19862;DHT22;10093;48.148;8.542;2023-04-24T04:03:31;7.80;99.90
19862;DHT22;10093;48.148;8.542;2023-04-24T04:05:57;7.80;99.90
19862;DHT22;10093;48.148;8.542;2023-04-24T04:08:23;7.80;99.90
19862;DHT22;10093;48.148;8.542;2023-04-24T04:10:48;7.80;99.90
19862;DHT22;10093;48.148;8.542;2023-04-24T04:13:14;7.80;99.90
19862;DHT22;10093;48.148;8.542;2023-04-24T04:15:40;7.90;99.90
19862;DHT22;10093;48.148;8.542;2023-04-24T04:18:06;7.70;99.90
19862;DHT22;10093;48.148;8.542;2023-04-24T04:20:31;7.60;99.90
19862;DHT22;10093;48.148;8.542;2023-04-24T04:22:57;7.80;99.90
19862;DHT22;10093;48.148;8.542;2023-04-24T04:25:22;7.80;99.90
19862;DHT22;10093;48.148;8.542;2023-04-24T04:27:48;7.80;99.90
19862;DHT22;10093;48.148;8.542;2023-04-24T04:30:14;7.80;99.90
19862;DHT22;10093;48.148;8.542;2023-04-24T04:32:40;7.80;99.90
19862;DHT22;10093;48.148;8.542;2023-04-24T04:35:06;7.80;99.90
19862;DHT22;10093;48.148;8.542;2023-04-24T04:37:32;7.90;99.90
19862;DHT22;10093;48.148;8.542;2023-04-24T04:39:59;7.60;99.90
19862;DHT22;10093;48.148;8.542;2023-04-24T04:42:25;7.30;99.90
19862;DHT22;10093;48.148;8.542;2023-04-24T04:44:52;7.10;99.90
19862;DHT22;10093;48.148;8.542;2023-04-24T04:47:18;6.80;99.90
19862;DHT22;10093;48.148;8.542;2023-04-24T04:49:47;6.60;99.90
19862;DHT22;10093;48.148;8.542;2023-04-24T04:52:13;6.40;99.90
19862;DHT22;10093;48.148;8.542;2023-04-24T04:54:39;6.40;99.90
19862;DHT22;10093;48.148;8.542;2023-04-24T04:57:05;6.20;99.90
19862;DHT22;10093;48.148;8.542;2023-04-24T04:59:31;6.30;99.90
19862;DHT22;10093;48.148;8.542;2023-04-24T05:01:56;6.30;99.90
19862;DHT22;10093;48.148;8.542;2023-04-24T05:04:22;6.30;99.90
19862;DHT22;10093;48.148;8.542;2023-04-24T05:06:48;6.20;99.90
19862;DHT22;10093;48.148;8.542;2023-04-24T05:09:13;6.10;99.90
19862;DHT22;10093;48.148;8.542;2023-04-24T05:11:39;6.10;99.90
19862;DHT22;10093;48.148;8.542;2023-04-24T05:14:05;6.20;99.90
19862;DHT22;10093;48.148;8.542;2023-04-24T05:16:30;6.20;99.90
19862;DHT22;10093;48.148;8.542;2023-04-24T05:18:56;6.10;99.90
19862;DHT22;10093;48.148;8.542;2023-04-24T05:21:22;6.10;99.90
19862;DHT22;10093;48.148;8.542;2023-04-24T05:23:47;6.20;99.90
19862;DHT22;10093;48.148;8.542;2023-04-24T05:26:14;6.20;99.90
19862;DHT22;10093;48.148;8.542;2023-04-24T05:28:40;6.20;99.90
19862;DHT22;10093;48.148;8.542;2023-04-24T05:31:06;6.40;99.90
19862;DHT22;10093;48.148;8.542;2023-04-24T05:33:32;6.70;99.90
19862;DHT22;10093;48.148;8.542;2023-04-24T05:35:57;6.90;99.90
19862;DHT22;10093;48.148;8.542;2023-04-24T05:38:23;6.90;99.90
19862;DHT22;10093;48.148;8.542;2023-04-24T05:40:51;6.60;99.90
19862;DHT22;10093;48.148;8.542;2023-04-24T05:43:17;7.00;99.90
19862;DHT22;10093;48.148;8.542;2023-04-24T05:45:42;7.70;99.90
19862;DHT22;10093;48.148;8.542;2023-04-24T05:48:08;9.60;99.90
19862;DHT22;10093;48.148;8.542;2023-04-24T05:50:34;11.20;99.90
19862;DHT22;10093;48.148;8.542;2023-04-24T05:52:59;12.40;99.90
19862;DHT22;10093;48.148;8.542;2023-04-24T05:55:27;14.00;99.90
19862;DHT22;10093;48.148;8.542;2023-04-24T05:57:53;14.80;99.90
19862;DHT22;10093;48.148;8.542;2023-04-24T06:00:18;14.70;99.90
19862;DHT22;10093;48.148;8.542;2023-04-24T06:02:45;12.70;99.90
19862;DHT22;10093;48.148;8.542;2023-04-24T06:05:11;11.50;99.90
19862;DHT22;10093;48.148;8.542;2023-04-24T06:07:37;11.00;99.90
19862;DHT22;10093;48.148;8.542;2023-04-24T06:10:03;11.10;99.90
19862;DHT22;10093;48.148;8.542;2023-04-24T06:12:28;11.50;99.90
19862;DHT22;10093;48.148;8.542;2023-04-24T06:14:54;12.00;99.90
19862;DHT22;10093;48.148;8.542;2023-04-24T06:17:21;12.70;99.90
19862;DHT22;10093;48.148;8.542;2023-04-24T06:19:46;12.70;99.90
19862;DHT22;10093;48.148;8.542;2023-04-24T06:22:12;12.00;99.90
19862;DHT22;10093;48.148;8.542;2023-04-24T06:24:39;11.30;99.90
19862;DHT22;10093;48.148;8.542;2023-04-24T06:27:05;10.40;99.90
19862;DHT22;10093;48.148;8.542;2023-04-24T06:29:31;9.60;99.90
19862;DHT22;10093;48.148;8.542;2023-04-24T06:31:56;9.10;99.90
19862;DHT22;10093;48.148;8.542;2023-04-24T06:34:22;8.90;99.90
19862;DHT22;10093;48.148;8.542;2023-04-24T06:36:48;9.00;99.90
19862;DHT22;10093;48.148;8.542;2023-04-24T06:39:13;9.40;99.90
19862;DHT22;10093;48.148;8.542;2023-04-24T06:41:39;9.50;99.90
19862;DHT22;10093;48.148;8.542;2023-04-24T06:44:05;9.40;99.90
19862;DHT22;10093;48.148;8.542;2023-04-24T06:46:31;10.50;99.90
19862;DHT22;10093;48.148;8.542;2023-04-24T06:48:56;11.00;99.90
19862;DHT22;10093;48.148;8.542;2023-04-24T06:51:26;11.90;99.90
19862;DHT22;10093;48.148;8.542;2023-04-24T06:53:53;12.90;99.90
19862;DHT22;10093;48.148;8.542;2023-04-24T06:56:19;13.70;99.90
19862;DHT22;10093;48.148;8.542;2023-04-24T06:58:46;13.20;99.90
19862;DHT22;10093;48.148;8.542;2023-04-24T07:01:11;13.00;99.90
19862;DHT22;10093;48.148;8.542;2023-04-24T07:03:37;13.30;99.90
19862;DHT22;10093;48.148;8.542;2023-04-24T07:06:03;14.30;99.90
19862;DHT22;10093;48.148;8.542;2023-04-24T07:08:29;13.90;99.90
19862;DHT22;10093;48.148;8.542;2023-04-24T07:10:58;13.40;99.90
19862;DHT22;10093;48.148;8.542;2023-04-24T07:13:24;13.10;99.90
19862;DHT22;10093;48.148;8.542;2023-04-24T07:15:50;11.60;99.90
19862;DHT22;10093;48.148;8.542;2023-04-24T07:18:16;11.10;99.90
19862;DHT22;10093;48.148;8.542;2023-04-24T07:20:42;11.00;99.90
19862;DHT22;10093;48.148;8.542;2023-04-24T07:23:08;10.80;99.90
19862;DHT22;10093;48.148;8.542;2023-04-24T07:25:34;11.10;99.90
19862;DHT22;10093;48.148;8.542;2023-04-24T07:28:00;11.30;99.90
19862;DHT22;10093;48.148;8.542;2023-04-24T07:30:25;11.20;99.90
19862;DHT22;10093;48.148;8.542;2023-04-24T07:32:51;10.70;99.90
19862;DHT22;10093;48.148;8.542;2023-04-24T07:35:17;10.30;99.90
19862;DHT22;10093;48.148;8.542;2023-04-24T07:37:42;10.30;99.90
19862;DHT22;10093;48.148;8.542;2023-04-24T07:40:12;9.90;99.90
19862;DHT22;10093;48.148;8.542;2023-04-24T07:42:38;9.50;99.90
19862;DHT22;10093;48.148;8.542;2023-04-24T07:45:04;9.40;99.90
19862;DHT22;10093;48.148;8.542;2023-04-24T07:47:31;9.20;99.90
19862;DHT22;10093;48.148;8.542;2023-04-24T07:49:57;9.20;99.90
19862;DHT22;10093;48.148;8.542;2023-04-24T07:52:23;9.40;99.90
19862;DHT22;10093;48.148;8.542;2023-04-24T07:54:49;9.40;99.90
19862;DHT22;10093;48.148;8.542;2023-04-24T07:57:15;9.50;99.90
19862;DHT22;10093;48.148;8.542;2023-04-24T07:59:41;9.40;99.90
19862;DHT22;10093;48.148;8.542;2023-04-24T08:02:07;9.30;99.90
19862;DHT22;10093;48.148;8.542;2023-04-24T08:04:33;9.10;99.90
19862;DHT22;10093;48.148;8.542;2023-04-24T08:06:58;9.00;99.90
19862;DHT22;10093;48.148;8.542;2023-04-24T08:09:24;9.10;99.90
19862;DHT22;10093;48.148;8.542;2023-04-24T08:11:50;9.60;99.90
19862;DHT22;10093;48.148;8.542;2023-04-24T08:14:18;12.20;99.90
19862;DHT22;10093;48.148;8.542;2023-04-24T08:16:44;13.90;99.90
19862;DHT22;10093;48.148;8.542;2023-04-24T08:19:10;14.00;99.90
19862;DHT22;10093;48.148;8.542;2023-04-24T08:21:36;12.80;99.90
19862;DHT22;10093;48.148;8.542;2023-04-24T08:24:01;12.00;99.90
19862;DHT22;10093;48.148;8.542;2023-04-24T08:26:30;11.30;99.90
19862;DHT22;10093;48.148;8.542;2023-04-24T08:28:56;11.60;99.90
19862;DHT22;10093;48.148;8.542;2023-04-24T09:17:33;10.20;99.90
19862;DHT22;10093;48.148;8.542;2023-04-24T09:19:59;10.20;99.90
19862;DHT22;10093;48.148;8.542;2023-04-24T09:22:25;10.00;99.90
19862;DHT22;10093;48.148;8.542;2023-04-24T09:25:01;9.80;99.90
19862;DHT22;10093;48.148;8.542;2023-04-24T09:27:28;10.00;99.90
19862;DHT22;10093;48.148;8.542;2023-04-24T09:29:55;10.60;99.90
19862;DHT22;10093;48.148;8.542;2023-04-24T09:32:22;11.40;99.90
19862;DHT22;10093;48.148;8.542;2023-04-24T09:34:48;13.10;99.90
19862;DHT22;10093;48.148;8.542;2023-04-24T09:37:30;13.10;99.90
19862;DHT22;10093;48.148;8.542;2023-04-24T09:40:17;11.90;99.90
19862;DHT22;10093;48.148;8.542;2023-04-24T09:42:45;11.50;99.90
19862;DHT22;10093;48.148;8.542;2023-04-24T09:45:11;13.00;99.90
19862;DHT22;10093;48.148;8.542;2023-04-24T09:47:41;14.80;99.90
19862;DHT22;10093;48.148;8.542;2023-04-24T09:50:11;14.30;99.90
19862;DHT22;10093;48.148;8.542;2023-04-24T09:53:13;13.50;99.90
19862;DHT22;10093;48.148;8.542;2023-04-24T09:55:39;13.00;99.90
19862;DHT22;10093;48.148;8.542;2023-04-24T09:58:08;14.40;99.90
19862;DHT22;10093;48.148;8.542;2023-04-24T10:00:34;15.70;99.90
19862;DHT22;10093;48.148;8.542;2023-04-24T10:03:00;16.50;99.90
19862;DHT22;10093;48.148;8.542;2023-04-24T10:05:33;17.40;99.90
19862;DHT22;10093;48.148;8.542;2023-04-24T10:08:06;17.10;99.90
19862;DHT22;10093;48.148;8.542;2023-04-24T10:10:34;14.80;99.90
19862;DHT22;10093;48.148;8.542;2023-04-24T10:13:00;13.80;99.90
19862;DHT22;10093;48.148;8.542;2023-04-24T10:15:27;12.80;99.90
19862;DHT22;10093;48.148;8.542;2023-04-24T10:17:53;11.70;99.90
19862;DHT22;10093;48.148;8.542;2023-04-24T10:20:23;11.20;99.90
19862;DHT22;10093;48.148;8.542;2023-04-24T10:22:51;11.60;99.90
19862;DHT22;10093;48.148;8.542;2023-04-24T10:28:32;14.70;99.90
19862;DHT22;10093;48.148;8.542;2023-04-24T10:30:59;16.10;99.90
19862;DHT22;10093;48.148;8.542;2023-04-24T10:33:26;16.00;99.90
19862;DHT22;10093;48.148;8.542;2023-04-24T10:35:52;15.10;99.90
19862;DHT22;10093;48.148;8.542;2023-04-24T10:38:23;13.80;99.90
19862;DHT22;10093;48.148;8.542;2023-04-24T10:40:50;13.00;99.90
19862;DHT22;10093;48.148;8.542;2023-04-24T10:43:17;12.60;99.90
19862;DHT22;10093;48.148;8.542;2023-04-24T10:46:00;12.30;99.90
19862;DHT22;10093;48.148;8.542;2023-04-24T10:48:27;12.10;99.90
19862;DHT22;10093;48.148;8.542;2023-04-24T10:50:53;12.60;99.90
19862;DHT22;10093;48.148;8.542;2023-04-24T11:03:33;13.40;99.90
19862;DHT22;10093;48.148;8.542;2023-04-24T11:06:05;14.40;99.90
19862;DHT22;10093;48.148;8.542;2023-04-24T11:08:41;15.10;99.90
19862;DHT22;10093;48.148;8.542;2023-04-24T11:11:17;15.80;99.90
19862;DHT22;10093;48.148;8.542;2023-04-24T11:16:38;14.40;99.90
19862;DHT22;10093;48.148;8.542;2023-04-24T11:22:03;15.00;99.90
19862;DHT22;10093;48.148;8.542;2023-04-24T11:27:11;15.60;99.90
19862;DHT22;10093;48.148;8.542;2023-04-24T11:32:22;14.20;99.90
19862;DHT22;10093;48.148;8.542;2023-04-24T11:34:49;14.30;99.90
19862;DHT22;10093;48.148;8.542;2023-04-24T11:37:15;14.60;99.90
19862;DHT22;10093;48.148;8.542;2023-04-24T11:39:40;15.50;99.90
19862;DHT22;10093;48.148;8.542;2023-04-24T11:42:07;17.10;99.90
19862;DHT22;10093;48.148;8.542;2023-04-24T11:44:34;17.40;99.90
19862;DHT22;10093;48.148;8.542;2023-04-24T11:47:05;17.10;99.90
19862;DHT22;10093;48.148;8.542;2023-04-24T11:49:32;16.40;99.90
19862;DHT22;10093;48.148;8.542;2023-04-24T11:51:59;16.00;99.90
19862;DHT22;10093;48.148;8.542;2023-04-24T11:54:26;15.60;99.90
19862;DHT22;10093;48.148;8.542;2023-04-24T11:56:51;16.60;99.90
19862;DHT22;10093;48.148;8.542;2023-04-24T11:59:17;16.70;99.90
19862;DHT22;10093;48.148;8.542;2023-04-24T12:01:47;16.60;99.90
19862;DHT22;10093;48.148;8.542;2023-04-24T12:04:13;17.00;99.90
19862;DHT22;10093;48.148;8.542;2023-04-24T12:06:39;17.00;99.90
19862;DHT22;10093;48.148;8.542;2023-04-24T12:09:05;16.00;99.90
19862;DHT22;10093;48.148;8.542;2023-04-24T12:11:31;16.30;99.90
19862;DHT22;10093;48.148;8.542;2023-04-24T12:13:57;15.90;99.90
19862;DHT22;10093;48.148;8.542;2023-04-24T12:16:25;15.30;99.90
19862;DHT22;10093;48.148;8.542;2023-04-24T12:18:51;16.10;99.90
19862;DHT22;10093;48.148;8.542;2023-04-24T12:21:21;16.30;99.90
19862;DHT22;10093;48.148;8.542;2023-04-24T12:23:48;16.10;99.90
19862;DHT22;10093;48.148;8.542;2023-04-24T12:26:18;16.10;99.90
19862;DHT22;10093;48.148;8.542;2023-04-24T12:28:47;15.80;99.90
19862;DHT22;10093;48.148;8.542;2023-04-24T12:31:13;14.60;99.90
19862;DHT22;10093;48.148;8.542;2023-04-24T12:33:39;15.50;99.90
19862;DHT22;10093;48.148;8.542;2023-04-24T12:36:05;15.60;99.90
19862;DHT22;10093;48.148;8.542;2023-04-24T12:38:31;16.10;99.90
19862;DHT22;10093;48.148;8.542;2023-04-24T12:41:08;15.60;99.90
19862;DHT22;10093;48.148;8.542;2023-04-24T12:43:34;15.80;99.90
19862;DHT22;10093;48.148;8.542;2023-04-24T12:46:00;16.30;99.90
19862;DHT22;10093;48.148;8.542;2023-04-24T12:48:26;16.50;99.90
19862;DHT22;10093;48.148;8.542;2023-04-24T12:50:52;16.20;99.90
19862;DHT22;10093;48.148;8.542;2023-04-24T12:53:18;17.10;99.90
19862;DHT22;10093;48.148;8.542;2023-04-24T12:55:44;17.10;99.90
19862;DHT22;10093;48.148;8.542;2023-04-24T12:58:12;15.30;99.90
19862;DHT22;10093;48.148;8.542;2023-04-24T13:00:38;15.40;99.90
19862;DHT22;10093;48.148;8.542;2023-04-24T13:03:04;15.60;99.90
19862;DHT22;10093;48.148;8.542;2023-04-24T13:05:30;15.90;99.90
19862;DHT22;10093;48.148;8.542;2023-04-24T13:07:57;16.10;99.90
19862;DHT22;10093;48.148;8.542;2023-04-24T13:10:23;16.20;99.90
19862;DHT22;10093;48.148;8.542;2023-04-24T13:12:48;16.10;99.90
19862;DHT22;10093;48.148;8.542;2023-04-24T13:15:14;15.70;99.90
19862;DHT22;10093;48.148;8.542;2023-04-24T13:17:40;15.30;99.90
19862;DHT22;10093;48.148;8.542;2023-04-24T13:20:06;15.80;99.90
19862;DHT22;10093;48.148;8.542;2023-04-24T13:22:32;15.80;99.90
19862;DHT22;10093;48.148;8.542;2023-04-24T13:24:57;14.60;99.90
19862;DHT22;10093;48.148;8.542;2023-04-24T13:27:23;14.00;99.90
19862;DHT22;10093;48.148;8.542;2023-04-24T13:33:11;13.70;99.90
19862;DHT22;10093;48.148;8.542;2023-04-24T13:35:36;13.50;99.90
19862;DHT22;10093;48.148;8.542;2023-04-24T13:38:02;13.10;99.90
19862;DHT22;10093;48.148;8.542;2023-04-24T13:40:44;12.80;99.90
19862;DHT22;10093;48.148;8.542;2023-04-24T13:43:10;13.30;99.90
19862;DHT22;10093;48.148;8.542;2023-04-24T13:45:36;14.10;99.90
19862;DHT22;10093;48.148;8.542;2023-04-24T13:48:01;15.20;99.90
19862;DHT22;10093;48.148;8.542;2023-04-24T13:50:28;15.80;99.90
19862;DHT22;10093;48.148;8.542;2023-04-24T13:52:54;15.10;99.90
19862;DHT22;10093;48.148;8.542;2023-04-24T13:55:19;14.80;99.90
19862;DHT22;10093;48.148;8.542;2023-04-24T13:57:45;14.60;99.90
19862;DHT22;10093;48.148;8.542;2023-04-24T14:00:11;14.40;99.90
19862;DHT22;10093;48.148;8.542;2023-04-24T14:02:37;14.70;99.90
19862;DHT22;10093;48.148;8.542;2023-04-24T14:05:03;14.70;99.90
19862;DHT22;10093;48.148;8.542;2023-04-24T14:07:29;14.30;99.90
19862;DHT22;10093;48.148;8.542;2023-04-24T14:09:54;15.10;99.90
19862;DHT22;10093;48.148;8.542;2023-04-24T14:12:20;15.70;99.90
19862;DHT22;10093;48.148;8.542;2023-04-24T14:14:46;14.90;99.90
19862;DHT22;10093;48.148;8.542;2023-04-24T14:17:13;14.40;99.90
19862;DHT22;10093;48.148;8.542;2023-04-24T14:19:39;14.60;99.90
19862;DHT22;10093;48.148;8.542;2023-04-24T14:22:05;15.30;99.90
19862;DHT22;10093;48.148;8.542;2023-04-24T14:24:30;15.50;99.90
19862;DHT22;10093;48.148;8.542;2023-04-24T14:26:56;15.20;99.90
19862;DHT22;10093;48.148;8.542;2023-04-24T14:29:22;15.30;99.90
19862;DHT22;10093;48.148;8.542;2023-04-24T14:31:48;15.40;99.90
19862;DHT22;10093;48.148;8.542;2023-04-24T14:34:14;14.90;99.90
19862;DHT22;10093;48.148;8.542;2023-04-24T14:36:39;14.70;99.90
19862;DHT22;10093;48.148;8.542;2023-04-24T14:39:06;15.10;99.90
19862;DHT22;10093;48.148;8.542;2023-04-24T14:41:32;14.70;99.90
19862;DHT22;10093;48.148;8.542;2023-04-24T14:44:03;14.20;99.90
19862;DHT22;10093;48.148;8.542;2023-04-24T14:46:30;14.90;99.90
19862;DHT22;10093;48.148;8.542;2023-04-24T14:48:57;14.70;99.90
19862;DHT22;10093;48.148;8.542;2023-04-24T14:51:23;13.50;99.90
19862;DHT22;10093;48.148;8.542;2023-04-24T14:53:48;12.60;99.90
19862;DHT22;10093;48.148;8.542;2023-04-24T14:56:15;12.00;99.90
19862;DHT22;10093;48.148;8.542;2023-04-24T14:58:40;11.80;99.90
19862;DHT22;10093;48.148;8.542;2023-04-24T15:01:06;11.90;99.90
19862;DHT22;10093;48.148;8.542;2023-04-24T15:03:32;11.90;99.90
19862;DHT22;10093;48.148;8.542;2023-04-24T15:05:57;11.80;99.90
19862;DHT22;10093;48.148;8.542;2023-04-24T15:08:23;11.50;99.90
19862;DHT22;10093;48.148;8.542;2023-04-24T15:10:49;11.60;99.90
19862;DHT22;10093;48.148;8.542;2023-04-24T15:13:15;11.40;99.90
19862;DHT22;10093;48.148;8.542;2023-04-24T15:15:40;11.10;99.90
19862;DHT22;10093;48.148;8.542;2023-04-24T15:18:08;11.00;99.90
19862;DHT22;10093;48.148;8.542;2023-04-24T15:20:34;10.90;99.90
19862;DHT22;10093;48.148;8.542;2023-04-24T15:23:00;11.00;99.90
19862;DHT22;10093;48.148;8.542;2023-04-24T15:25:27;11.10;99.90
19862;DHT22;10093;48.148;8.542;2023-04-24T15:27:53;11.00;99.90
19862;DHT22;10093;48.148;8.542;2023-04-24T15:30:18;11.10;99.90
19862;DHT22;10093;48.148;8.542;2023-04-24T15:32:44;11.00;99.90
19862;DHT22;10093;48.148;8.542;2023-04-24T15:35:10;11.00;99.90
19862;DHT22;10093;48.148;8.542;2023-04-24T15:37:36;10.90;99.90
19862;DHT22;10093;48.148;8.542;2023-04-24T15:40:03;10.60;99.90
19862;DHT22;10093;48.148;8.542;2023-04-24T15:42:30;10.10;99.90
19862;DHT22;10093;48.148;8.542;2023-04-24T15:44:56;10.00;99.90
19862;DHT22;10093;48.148;8.542;2023-04-24T15:47:22;9.80;99.90
19862;DHT22;10093;48.148;8.542;2023-04-24T15:49:47;9.40;99.90
19862;DHT22;10093;48.148;8.542;2023-04-24T15:52:13;9.20;99.90
19862;DHT22;10093;48.148;8.542;2023-04-24T15:54:39;9.10;99.90
19862;DHT22;10093;48.148;8.542;2023-04-24T15:57:06;8.90;99.90
19862;DHT22;10093;48.148;8.542;2023-04-24T15:59:31;8.80;99.90
19862;DHT22;10093;48.148;8.542;2023-04-24T16:01:57;9.10;99.90
19862;DHT22;10093;48.148;8.542;2023-04-24T16:04:23;9.80;99.90
19862;DHT22;10093;48.148;8.542;2023-04-24T16:06:49;10.50;99.90
19862;DHT22;10093;48.148;8.542;2023-04-24T16:09:14;10.80;99.90
19862;DHT22;10093;48.148;8.542;2023-04-24T16:11:40;10.60;99.90
19862;DHT22;10093;48.148;8.542;2023-04-24T16:14:05;10.30;99.90
19862;DHT22;10093;48.148;8.542;2023-04-24T16:16:31;9.80;99.90
19862;DHT22;10093;48.148;8.542;2023-04-24T16:18:57;9.30;99.90
19862;DHT22;10093;48.148;8.542;2023-04-24T16:21:23;9.20;99.90
19862;DHT22;10093;48.148;8.542;2023-04-24T16:23:48;9.00;99.90
19862;DHT22;10093;48.148;8.542;2023-04-24T16:26:14;8.90;99.90
19862;DHT22;10093;48.148;8.542;2023-04-24T16:28:40;9.00;99.90
19862;DHT22;10093;48.148;8.542;2023-04-24T16:31:07;9.10;99.90
19862;DHT22;10093;48.148;8.542;2023-04-24T16:33:33;9.20;99.90
19862;DHT22;10093;48.148;8.542;2023-04-24T16:35:59;9.40;99.90
19862;DHT22;10093;48.148;8.542;2023-04-24T16:38:25;9.20;99.90
19862;DHT22;10093;48.148;8.542;2023-04-24T16:40:51;9.10;99.90
19862;DHT22;10093;48.148;8.542;2023-04-24T16:43:17;8.90;99.90
19862;DHT22;10093;48.148;8.542;2023-04-24T16:45:42;9.00;99.90
19862;DHT22;10093;48.148;8.542;2023-04-24T16:48:08;9.00;99.90